createdAt,value
2022-10-07T00:01:06.844Z,4.77
2022-10-07T00:03:35.080Z,4.60
2022-10-07T00:06:05.218Z,3.30
2022-10-07T00:08:33.521Z,3.50
2022-10-07T00:11:06.082Z,3.97
2022-10-07T00:13:36.484Z,5.23
2022-10-07T00:16:07.477Z,3.57
2022-10-07T00:18:36.130Z,3.37
2022-10-07T00:21:05.629Z,5.27
2022-10-07T00:23:33.599Z,8.47
2022-10-07T00:26:02.507Z,6.73
2022-10-07T00:28:30.849Z,3.87
2022-10-07T00:30:59.502Z,3.63
2022-10-07T00:33:32.099Z,3.30
2022-10-07T00:35:59.961Z,5.60
2022-10-07T00:38:27.843Z,2.80
2022-10-07T00:40:55.607Z,4.33
2022-10-07T00:43:26.292Z,5.13
2022-10-07T00:45:57.515Z,4.80
2022-10-07T00:48:36.131Z,6.60
2022-10-07T00:51:04.532Z,4.40
2022-10-07T00:53:37.081Z,4.87
2022-10-07T00:56:06.874Z,4.67
2022-10-07T00:58:36.701Z,8.87
2022-10-07T01:01:08.091Z,5.30
2022-10-07T01:03:38.072Z,3.30
2022-10-07T01:06:06.724Z,3.30
2022-10-07T01:08:34.859Z,5.23
2022-10-07T01:11:14.776Z,5.53
2022-10-07T01:13:55.557Z,4.60
2022-10-07T01:16:30.631Z,6.40
2022-10-07T01:19:10.950Z,6.50
2022-10-07T01:21:47.104Z,4.90
2022-10-07T01:24:28.143Z,4.63
2022-10-07T01:27:04.928Z,6.63
2022-10-07T01:29:39.178Z,6.23
2022-10-07T01:32:13.994Z,4.10
2022-10-07T01:34:44.148Z,3.10
2022-10-07T01:37:17.180Z,4.90
2022-10-07T01:39:48.807Z,4.20
2022-10-07T01:42:18.519Z,5.33
2022-10-07T01:44:49.454Z,3.70
2022-10-07T01:47:18.105Z,5.57
2022-10-07T01:49:46.482Z,5.67
2022-10-07T01:52:36.207Z,3.90
2022-10-07T01:55:20.232Z,4.50
2022-10-07T01:57:57.768Z,3.70
2022-10-07T02:00:28.191Z,5.40
2022-10-07T02:03:12.245Z,3.53
2022-10-07T02:05:52.638Z,5.67
2022-10-07T02:08:34.796Z,4.70
2022-10-07T02:11:13.925Z,3.67
2022-10-07T02:13:57.871Z,5.07
2022-10-07T02:16:32.635Z,5.23
2022-10-07T02:19:05.518Z,8.50
2022-10-07T02:21:35.811Z,5.03
2022-10-07T02:24:05.335Z,4.07
2022-10-07T02:26:35.066Z,3.30
2022-10-07T02:29:07.931Z,3.57
2022-10-07T02:31:38.635Z,3.13
2022-10-07T02:34:08.783Z,2.77
2022-10-07T02:36:41.829Z,4.27
2022-10-07T02:39:09.828Z,3.27
2022-10-07T02:41:45.644Z,3.17
2022-10-07T02:44:26.778Z,4.90
2022-10-07T02:47:02.629Z,3.10
2022-10-07T02:49:32.201Z,7.10
2022-10-07T02:52:05.319Z,4.27
2022-10-07T02:54:42.692Z,3.10
2022-10-07T02:57:13.961Z,4.07
2022-10-07T02:59:45.221Z,4.50
2022-10-07T03:02:17.883Z,3.20
2022-10-07T03:04:46.163Z,6.03
2022-10-07T03:07:14.080Z,3.40
2022-10-07T03:09:42.813Z,2.93
2022-10-07T03:12:12.551Z,5.33
2022-10-07T03:14:41.111Z,4.40
2022-10-07T03:17:11.324Z,4.50
2022-10-07T03:19:39.096Z,3.27
2022-10-07T03:22:07.017Z,2.80
2022-10-07T03:24:37.681Z,3.13
2022-10-07T03:27:08.949Z,4.00
2022-10-07T03:29:41.940Z,5.00
2022-10-07T03:32:11.500Z,3.87
2022-10-07T03:34:39.357Z,3.97
2022-10-07T03:37:07.877Z,5.33
2022-10-07T03:39:35.716Z,3.20
2022-10-07T03:42:03.494Z,5.97
2022-10-07T03:44:32.070Z,4.13
2022-10-07T03:47:00.412Z,3.93
2022-10-07T03:49:30.162Z,3.70
2022-10-07T03:51:59.370Z,5.93
2022-10-07T03:54:28.429Z,4.17
2022-10-07T03:56:56.209Z,4.87
2022-10-07T03:59:24.001Z,3.87
2022-10-07T04:01:51.764Z,3.90
2022-10-07T04:04:20.619Z,6.93
2022-10-07T04:06:50.395Z,4.57
2022-10-07T04:09:18.228Z,6.67
2022-10-07T04:11:45.980Z,5.03
2022-10-07T04:14:13.886Z,6.87
2022-10-07T04:16:42.694Z,6.40
2022-10-07T04:19:13.693Z,7.00
2022-10-07T04:21:42.786Z,5.83
2022-10-07T04:24:12.133Z,6.70
2022-10-07T04:26:39.897Z,11.07
2022-10-07T04:29:07.797Z,4.57
2022-10-07T04:31:37.388Z,5.37
2022-10-07T04:34:06.787Z,4.33
2022-10-07T04:36:39.027Z,3.50
2022-10-07T04:39:16.909Z,5.30
2022-10-07T04:41:54.674Z,7.87
2022-10-07T04:44:26.620Z,5.17
2022-10-07T04:47:00.166Z,5.40
2022-10-07T04:49:30.663Z,12.97
2022-10-07T04:52:00.558Z,18.47
2022-10-07T04:54:34.328Z,18.47
2022-10-07T04:57:02.254Z,16.80
2022-10-07T04:59:30.729Z,14.83
2022-10-07T05:01:59.688Z,18.63
2022-10-07T05:04:29.908Z,35.13
2022-10-07T05:06:59.409Z,26.97
2022-10-07T05:09:27.527Z,14.93
2022-10-07T05:11:56.724Z,21.77
2022-10-07T05:14:24.709Z,20.80
2022-10-07T05:16:54.020Z,16.67
2022-10-07T05:19:25.864Z,19.13
2022-10-07T05:21:54.662Z,24.70
2022-10-07T05:24:22.677Z,20.60
2022-10-07T05:26:51.680Z,27.13
2022-10-07T05:29:20.838Z,21.53
2022-10-07T05:31:52.388Z,16.50
2022-10-07T05:34:23.777Z,18.67
2022-10-07T05:36:53.217Z,15.13
2022-10-07T05:39:24.797Z,22.43
2022-10-07T05:42:01.841Z,32.63
2022-10-07T05:44:38.221Z,31.30
2022-10-07T05:47:10.009Z,36.80
2022-10-07T05:49:37.857Z,25.27
2022-10-07T05:52:07.707Z,23.90
2022-10-07T05:54:35.904Z,23.30
2022-10-07T05:57:04.373Z,26.87
2022-10-07T05:59:32.533Z,28.03
2022-10-07T06:02:04.580Z,17.30
2022-10-07T06:04:33.761Z,19.33
2022-10-07T06:07:04.188Z,19.70
2022-10-07T06:09:49.792Z,23.87
2022-10-07T06:12:36.288Z,21.00
2022-10-07T06:15:10.699Z,17.27
2022-10-07T06:17:46.512Z,31.90
2022-10-07T06:20:18.083Z,53.77
2022-10-07T06:22:47.056Z,18.83
2022-10-07T06:25:16.644Z,36.77
2022-10-07T06:27:49.724Z,17.83
2022-10-07T06:30:21.032Z,29.13
2022-10-07T06:32:51.105Z,21.53
2022-10-07T06:35:19.367Z,27.73
2022-10-07T06:37:48.827Z,14.40
2022-10-07T06:40:17.237Z,15.60
2022-10-07T06:42:45.263Z,13.43
2022-10-07T06:45:39.754Z,12.00
2022-10-07T06:48:09.370Z,13.17
2022-10-07T06:50:40.326Z,14.60
2022-10-07T06:53:08.241Z,16.07
2022-10-07T06:55:38.058Z,15.07
2022-10-07T06:58:11.398Z,10.60
2022-10-07T07:00:41.026Z,11.90
2022-10-07T07:03:12.248Z,10.63
2022-10-07T07:05:44.613Z,15.27
2022-10-07T07:08:17.309Z,20.57
2022-10-07T07:10:46.316Z,11.70
2022-10-07T07:13:14.449Z,13.97
2022-10-07T07:15:57.854Z,13.20
2022-10-07T07:18:28.152Z,14.10
2022-10-07T07:20:56.112Z,11.57
2022-10-07T07:23:24.599Z,13.50
2022-10-07T07:25:52.995Z,13.73
2022-10-07T07:28:22.746Z,13.13
2022-10-07T07:30:50.945Z,15.77
2022-10-07T07:33:18.863Z,13.50
2022-10-07T07:35:48.017Z,13.73
2022-10-07T07:38:15.879Z,12.67
2022-10-07T07:40:44.789Z,12.87
2022-10-07T07:43:13.833Z,13.73
2022-10-07T07:45:41.914Z,12.53
2022-10-07T07:48:10.365Z,12.83
2022-10-07T07:50:41.087Z,14.17
2022-10-07T07:53:10.669Z,13.70
2022-10-07T07:55:38.671Z,15.40
2022-10-07T07:58:11.692Z,15.50
2022-10-07T08:00:40.403Z,19.77
2022-10-07T08:03:08.551Z,16.13
2022-10-07T08:05:36.406Z,13.90
2022-10-07T08:08:05.019Z,14.90
2022-10-07T08:10:34.457Z,14.30
2022-10-07T08:13:02.289Z,12.57
2022-10-07T08:15:30.529Z,13.90
2022-10-07T08:17:58.945Z,13.87
2022-10-07T08:20:26.745Z,13.40
2022-10-07T08:22:58.935Z,15.30
2022-10-07T08:25:29.526Z,16.00
2022-10-07T08:28:01.307Z,13.80
2022-10-07T08:30:29.679Z,15.17
2022-10-07T08:33:01.167Z,14.33
2022-10-07T08:35:29.448Z,15.57
2022-10-07T08:37:57.237Z,16.00
2022-10-07T08:40:25.179Z,15.30
2022-10-07T08:42:54.187Z,15.60
2022-10-07T08:45:32.441Z,18.60
2022-10-07T08:48:04.797Z,17.60
2022-10-07T08:50:49.056Z,15.77
2022-10-07T08:53:21.045Z,14.30
2022-10-07T08:55:53.872Z,14.87
2022-10-07T08:58:43.274Z,16.13
2022-10-07T09:01:31.023Z,17.47
2022-10-07T09:04:10.524Z,18.53
2022-10-07T09:06:42.312Z,17.50
2022-10-07T09:09:17.017Z,19.97
2022-10-07T09:11:48.606Z,18.03
2022-10-07T09:14:26.320Z,18.73
2022-10-07T09:16:59.932Z,20.03
2022-10-07T09:19:39.550Z,17.57
2022-10-07T09:22:13.056Z,19.03
2022-10-07T09:24:40.981Z,17.83
2022-10-07T09:27:14.595Z,17.90
2022-10-07T09:29:42.669Z,18.50
2022-10-07T09:32:13.965Z,17.67
2022-10-07T09:34:42.528Z,16.77
2022-10-07T09:37:16.310Z,17.37
2022-10-07T09:39:45.921Z,19.17
2022-10-07T09:42:35.048Z,18.47
2022-10-07T09:45:07.142Z,17.07
2022-10-07T09:47:40.446Z,16.37
2022-10-07T09:50:34.513Z,15.83
2022-10-07T09:53:03.027Z,15.47
2022-10-07T09:55:37.648Z,16.43
2022-10-07T09:58:07.235Z,14.73
2022-10-07T10:00:43.858Z,15.70
2022-10-07T10:03:14.142Z,14.70
2022-10-07T10:05:53.673Z,14.77
2022-10-07T10:08:26.650Z,15.30
2022-10-07T10:10:56.720Z,14.93
2022-10-07T10:13:28.115Z,14.73
2022-10-07T10:15:57.166Z,16.97
2022-10-07T10:18:34.636Z,16.03
2022-10-07T10:21:27.423Z,13.87
2022-10-07T10:23:57.974Z,17.00
2022-10-07T10:26:56.064Z,14.07
2022-10-07T10:29:34.561Z,12.53
2022-10-07T10:32:22.953Z,12.83
2022-10-07T10:34:59.838Z,13.07
2022-10-07T10:37:50.715Z,13.13
2022-10-07T10:40:27.045Z,12.47
2022-10-07T10:43:02.435Z,13.83
2022-10-07T10:45:36.727Z,13.40
2022-10-07T10:48:24.314Z,13.13
2022-10-07T10:51:01.171Z,14.40
2022-10-07T10:53:39.489Z,13.40
2022-10-07T10:56:20.926Z,13.43
2022-10-07T10:59:01.929Z,12.33
2022-10-07T11:01:36.587Z,14.27
2022-10-07T11:04:22.159Z,12.60
2022-10-07T11:06:56.268Z,11.53
2022-10-07T11:09:32.260Z,14.03
2022-10-07T11:12:04.952Z,12.53
2022-10-07T11:14:37.813Z,12.67
2022-10-07T11:17:08.631Z,12.73
2022-10-07T11:19:41.336Z,12.87
2022-10-07T11:22:16.275Z,11.77
2022-10-07T11:24:47.386Z,12.63
2022-10-07T11:27:20.115Z,11.23
2022-10-07T11:29:53.477Z,12.93
2022-10-07T11:32:29.181Z,12.93
2022-10-07T11:35:04.829Z,12.40
2022-10-07T11:37:39.457Z,11.63
2022-10-07T11:40:09.680Z,11.97
2022-10-07T11:42:43.060Z,10.77
2022-10-07T11:45:17.721Z,12.47
2022-10-07T11:47:49.861Z,12.17
2022-10-07T11:50:21.338Z,11.87
2022-10-07T11:52:53.790Z,11.70
2022-10-07T11:55:26.035Z,10.00
2022-10-07T11:57:56.725Z,10.13
2022-10-07T12:00:27.360Z,11.73
2022-10-07T12:02:56.240Z,11.73
2022-10-07T12:06:03.735Z,10.37
2022-10-07T12:08:35.558Z,12.20
2022-10-07T12:11:42.028Z,9.43
2022-10-07T12:14:32.233Z,16.00
2022-10-07T12:17:11.940Z,11.03
2022-10-07T12:19:39.716Z,11.00
2022-10-07T12:22:18.925Z,9.40
2022-10-07T12:25:28.164Z,10.97
2022-10-07T12:27:57.084Z,11.50
2022-10-07T12:30:49.973Z,10.80
2022-10-07T12:33:28.918Z,10.87
2022-10-07T12:35:56.758Z,11.73
2022-10-07T12:38:27.130Z,9.40
2022-10-07T12:41:18.005Z,8.77
2022-10-07T12:43:51.462Z,8.97
2022-10-07T12:46:22.026Z,10.00
2022-10-07T12:48:58.190Z,8.57
2022-10-07T12:51:29.633Z,9.00
2022-10-07T12:54:00.340Z,9.43
2022-10-07T12:56:31.294Z,9.93
2022-10-07T12:59:50.334Z,10.57
2022-10-07T13:02:50.199Z,8.70
2022-10-07T13:05:56.067Z,9.50
2022-10-07T13:09:02.855Z,12.00
2022-10-07T13:12:06.754Z,8.73
2022-10-07T13:14:42.079Z,8.83
2022-10-07T13:17:24.980Z,10.40
2022-10-07T13:20:02.849Z,8.33
2022-10-07T13:22:31.773Z,9.40
2022-10-07T13:25:02.357Z,14.27
2022-10-07T13:27:34.505Z,10.13
2022-10-07T13:30:04.736Z,10.00
2022-10-07T13:32:34.372Z,9.10
2022-10-07T13:35:29.631Z,11.23
2022-10-07T13:37:57.531Z,11.77
2022-10-07T13:40:28.435Z,10.17
2022-10-07T13:43:00.497Z,12.77
2022-10-07T13:45:28.839Z,11.20
2022-10-07T13:47:57.626Z,12.30
2022-10-07T13:50:29.118Z,13.00
2022-10-07T13:52:58.481Z,10.00
2022-10-07T13:55:29.412Z,10.57
2022-10-07T13:58:01.887Z,11.80
2022-10-07T14:00:30.799Z,11.53
2022-10-07T14:02:58.867Z,10.37
2022-10-07T14:05:29.294Z,11.23
2022-10-07T14:07:59.377Z,11.57
2022-10-07T14:10:32.202Z,12.17
2022-10-07T14:13:04.193Z,11.50
2022-10-07T14:15:38.072Z,12.40
2022-10-07T14:18:09.714Z,13.43
2022-10-07T14:20:40.654Z,13.37
2022-10-07T14:23:18.175Z,10.50
2022-10-07T14:25:54.173Z,10.13
2022-10-07T14:28:30.202Z,9.53
2022-10-07T14:31:39.305Z,13.70
2022-10-07T14:34:31.783Z,13.77
2022-10-07T14:37:04.567Z,12.10
2022-10-07T14:39:35.359Z,12.93
2022-10-07T14:42:03.607Z,20.03
2022-10-07T14:44:33.322Z,14.00
2022-10-07T14:47:06.769Z,10.87
2022-10-07T14:49:34.509Z,11.90
2022-10-07T14:52:03.736Z,11.73
2022-10-07T14:54:32.025Z,11.30
2022-10-07T14:56:59.805Z,12.13
2022-10-07T14:59:30.087Z,9.27
2022-10-07T15:01:59.230Z,12.23
2022-10-07T15:04:27.986Z,10.47
2022-10-07T15:06:55.874Z,11.03
2022-10-07T15:09:23.676Z,11.23
2022-10-07T15:11:51.571Z,11.53
2022-10-07T15:14:19.383Z,13.60
2022-10-07T15:16:47.214Z,12.70
2022-10-07T15:19:16.439Z,9.53
2022-10-07T15:21:44.394Z,10.00
2022-10-07T15:24:20.309Z,10.53
2022-10-07T15:26:48.147Z,12.53
2022-10-07T15:29:16.877Z,10.37
2022-10-07T15:31:44.651Z,10.60
2022-10-07T15:34:13.953Z,10.47
2022-10-07T15:36:43.333Z,8.70
2022-10-07T15:39:11.568Z,12.07
2022-10-07T15:41:41.511Z,8.53
2022-10-07T15:44:16.217Z,13.93
2022-10-07T15:46:44.452Z,13.83
2022-10-07T15:49:12.378Z,7.70
2022-10-07T15:51:40.841Z,11.77
2022-10-07T15:54:11.599Z,12.97
2022-10-07T15:56:39.460Z,7.70
2022-10-07T15:59:07.363Z,10.20
2022-10-07T16:01:35.358Z,11.00
2022-10-07T16:04:04.145Z,10.27
2022-10-07T16:06:33.829Z,11.90
2022-10-07T16:09:02.499Z,13.87
2022-10-07T16:11:33.999Z,12.73
2022-10-07T16:14:02.911Z,11.00
2022-10-07T16:16:32.710Z,9.97
2022-10-07T16:19:01.886Z,12.83
2022-10-07T16:21:31.624Z,9.97
2022-10-07T16:24:02.164Z,12.37
2022-10-07T16:26:33.784Z,12.23
2022-10-07T16:29:20.826Z,12.37
2022-10-07T16:31:54.537Z,10.33
2022-10-07T16:34:25.570Z,11.83
2022-10-07T16:36:53.454Z,11.30
2022-10-07T16:39:21.990Z,11.93
2022-10-07T16:41:52.417Z,11.00
2022-10-07T16:44:21.048Z,14.47
2022-10-07T16:46:49.299Z,12.53
2022-10-07T16:49:18.961Z,21.77
2022-10-07T16:51:46.995Z,13.23
2022-10-07T16:54:16.496Z,17.53
2022-10-07T16:56:46.879Z,13.57
2022-10-07T16:59:22.650Z,15.17
2022-10-07T17:01:52.006Z,14.57
2022-10-07T17:04:20.133Z,11.70
2022-10-07T17:06:48.434Z,12.73
2022-10-07T17:09:17.820Z,10.53
2022-10-07T17:11:46.512Z,15.50
2022-10-07T17:14:17.300Z,16.37
2022-10-07T17:16:46.818Z,10.87
2022-10-07T17:19:17.454Z,14.20
2022-10-07T17:21:47.889Z,12.60
2022-10-07T17:24:17.287Z,15.53
2022-10-07T17:26:45.843Z,13.27
2022-10-07T17:29:18.081Z,13.53
2022-10-07T17:31:48.297Z,12.50
2022-10-07T17:34:17.024Z,13.53
2022-10-07T17:36:44.848Z,16.57
2022-10-07T17:39:13.184Z,16.37
2022-10-07T17:41:41.248Z,15.17
2022-10-07T17:44:12.125Z,16.70
2022-10-07T17:46:42.495Z,17.37
2022-10-07T17:49:16.215Z,19.17
2022-10-07T17:51:44.271Z,15.20
2022-10-07T17:54:14.148Z,16.63
2022-10-07T17:56:47.561Z,19.83
2022-10-07T17:59:15.919Z,16.13
2022-10-07T18:01:45.459Z,20.60
2022-10-07T18:04:17.965Z,16.50
2022-10-07T18:06:49.066Z,16.47
2022-10-07T18:09:19.445Z,15.03
2022-10-07T18:12:05.277Z,15.67
2022-10-07T18:14:53.737Z,15.73
2022-10-07T18:17:24.737Z,16.53
2022-10-07T18:19:53.200Z,17.50
2022-10-07T18:22:21.330Z,14.13
2022-10-07T18:24:49.882Z,15.17
2022-10-07T18:27:18.015Z,13.03
2022-10-07T18:29:46.013Z,12.70
2022-10-07T18:32:13.975Z,14.47
2022-10-07T18:34:43.341Z,14.07
2022-10-07T18:37:11.376Z,15.00
2022-10-07T18:39:41.122Z,15.47
2022-10-07T18:42:09.196Z,14.47
2022-10-07T18:44:37.093Z,16.93
2022-10-07T18:47:05.183Z,17.03
2022-10-07T18:49:33.266Z,15.97
2022-10-07T18:52:02.612Z,15.93
2022-10-07T18:54:30.895Z,13.07
2022-10-07T18:56:58.997Z,13.53
2022-10-07T18:59:26.996Z,14.43
2022-10-07T19:01:55.083Z,15.67
2022-10-07T19:04:23.138Z,12.70
2022-10-07T19:06:51.030Z,14.47
2022-10-07T19:09:22.639Z,13.37
2022-10-07T19:11:51.000Z,13.00
2022-10-07T19:14:17.999Z,13.50
2022-10-07T19:16:49.066Z,12.57
2022-10-07T19:19:19.998Z,11.87
2022-10-07T19:21:50.591Z,12.63
2022-10-07T19:24:20.451Z,12.07
2022-10-07T19:26:51.459Z,13.40
2022-10-07T19:29:19.624Z,12.33
2022-10-07T19:31:50.006Z,12.67
2022-10-07T19:34:21.075Z,11.57
2022-10-07T19:36:49.954Z,11.40
2022-10-07T19:39:21.367Z,11.10
2022-10-07T19:41:51.045Z,12.80
2022-10-07T19:44:19.644Z,11.03
2022-10-07T19:46:51.322Z,10.73
2022-10-07T19:49:19.638Z,10.20
2022-10-07T19:51:47.439Z,10.70
2022-10-07T19:54:15.372Z,10.57
2022-10-07T19:56:45.197Z,10.67
2022-10-07T19:59:15.122Z,10.73
2022-10-07T20:01:44.320Z,11.23
2022-10-07T20:04:14.096Z,11.73
2022-10-07T20:06:42.393Z,11.13
2022-10-07T20:09:12.876Z,11.50
2022-10-07T20:11:40.724Z,13.47
2022-10-07T20:14:10.287Z,11.17
2022-10-07T20:16:39.477Z,11.37
2022-10-07T20:19:09.448Z,14.07
2022-10-07T20:21:39.266Z,12.17
2022-10-07T20:24:08.364Z,11.97
2022-10-07T20:26:38.363Z,12.13
2022-10-07T20:29:10.015Z,11.67
2022-10-07T20:31:41.585Z,11.23
2022-10-07T20:34:14.398Z,11.00
2022-10-07T20:36:42.275Z,10.77
2022-10-07T20:39:33.455Z,10.87
2022-10-07T20:42:20.072Z,13.40
2022-10-07T20:44:49.194Z,11.37
2022-10-07T20:47:19.696Z,13.70
2022-10-07T20:49:48.764Z,11.60
2022-10-07T20:52:19.655Z,12.30
2022-10-07T20:54:48.311Z,13.17
2022-10-07T20:57:18.377Z,13.73
2022-10-07T20:59:46.417Z,13.80
2022-10-07T21:02:15.538Z,13.47
2022-10-07T21:04:46.945Z,12.80
2022-10-07T21:07:16.184Z,19.70
2022-10-07T21:09:44.399Z,17.47
2022-10-07T21:12:15.566Z,16.73
2022-10-07T21:14:44.307Z,16.57
2022-10-07T21:17:13.072Z,17.67
2022-10-07T21:19:41.652Z,17.20
2022-10-07T21:22:10.954Z,19.73
2022-10-07T21:24:38.940Z,17.53
2022-10-07T21:27:08.571Z,20.33
2022-10-07T21:29:40.803Z,19.43
2022-10-07T21:32:09.381Z,18.30
2022-10-07T21:34:37.373Z,18.73
2022-10-07T21:37:05.585Z,18.67
2022-10-07T21:39:35.338Z,21.67
2022-10-07T21:42:03.502Z,18.80
2022-10-07T21:44:33.316Z,18.00
2022-10-07T21:47:01.335Z,17.73
2022-10-07T21:49:29.239Z,16.33
2022-10-07T21:51:57.176Z,15.37
2022-10-07T21:54:26.108Z,13.87
2022-10-07T21:56:55.337Z,13.63
2022-10-07T21:59:23.378Z,14.30
2022-10-07T22:01:51.362Z,13.20
2022-10-07T22:04:20.147Z,13.53
2022-10-07T22:07:05.475Z,11.93
2022-10-07T22:09:33.437Z,11.47
2022-10-07T22:12:02.745Z,11.33
2022-10-07T22:14:30.575Z,12.07
2022-10-07T22:16:58.399Z,11.57
2022-10-07T22:19:26.374Z,11.97
2022-10-07T22:21:54.181Z,12.33
2022-10-07T22:24:23.560Z,11.93
2022-10-07T22:26:52.015Z,12.90
2022-10-07T22:29:22.902Z,13.43
2022-10-07T22:31:51.161Z,12.67
2022-10-07T22:34:36.739Z,13.40
2022-10-07T22:37:05.392Z,16.07
2022-10-07T22:39:33.379Z,11.43
2022-10-07T22:42:03.639Z,10.07
2022-10-07T22:44:32.870Z,9.17
2022-10-07T22:47:01.455Z,8.23
2022-10-07T22:49:30.465Z,7.90
2022-10-07T22:51:59.773Z,7.90
2022-10-07T22:54:28.424Z,8.10
2022-10-07T22:56:56.476Z,8.33
2022-10-07T22:59:24.257Z,7.60
2022-10-07T23:01:53.540Z,7.37
2022-10-07T23:04:21.712Z,7.33
2022-10-07T23:06:49.710Z,7.63
2022-10-07T23:09:17.561Z,7.60
2022-10-07T23:11:45.680Z,7.37
2022-10-07T23:14:13.569Z,8.50
2022-10-07T23:16:41.911Z,7.20
2022-10-07T23:19:11.501Z,7.50
2022-10-07T23:21:39.569Z,8.43
2022-10-07T23:24:08.448Z,7.47
2022-10-07T23:26:37.552Z,8.50
2022-10-07T23:29:07.495Z,7.10
2022-10-07T23:31:35.648Z,7.90
2022-10-07T23:34:03.978Z,7.07
2022-10-07T23:36:34.857Z,7.40
2022-10-07T23:39:03.242Z,6.97
2022-10-07T23:41:32.457Z,7.73
2022-10-07T23:44:03.038Z,8.20
2022-10-07T23:46:33.898Z,7.10
2022-10-07T23:49:02.759Z,7.40
2022-10-07T23:51:32.439Z,7.57
2022-10-07T23:54:03.442Z,8.63
2022-10-07T23:56:32.181Z,7.60
2022-10-07T23:59:00.580Z,9.43
